createdAt,value
2018-03-29T00:00:23.232Z,0
2018-03-29T00:00:49.368Z,0
2018-03-29T00:01:15.509Z,0
2018-03-29T00:01:41.675Z,0
2018-03-29T00:02:07.800Z,0
2018-03-29T00:02:33.960Z,0
2018-03-29T00:03:00.102Z,0
2018-03-29T00:03:26.240Z,0
2018-03-29T00:03:52.422Z,0
2018-03-29T00:04:18.560Z,0
2018-03-29T00:04:44.698Z,0
2018-03-29T00:05:10.830Z,0
2018-03-29T00:05:36.968Z,0
2018-03-29T00:06:03.096Z,0
2018-03-29T00:06:29.238Z,0
2018-03-29T00:06:55.371Z,0
2018-03-29T00:07:21.510Z,0
2018-03-29T00:07:47.647Z,0
2018-03-29T00:08:13.775Z,0
2018-03-29T00:08:39.913Z,0
2018-03-29T00:09:06.043Z,0
2018-03-29T00:09:32.209Z,0
2018-03-29T00:09:58.346Z,0
2018-03-29T00:10:24.477Z,0
2018-03-29T00:10:50.619Z,0
2018-03-29T00:11:16.749Z,0
2018-03-29T00:11:42.882Z,0
2018-03-29T00:12:09.019Z,0
2018-03-29T00:12:35.149Z,0
2018-03-29T00:13:01.286Z,0
2018-03-29T00:13:27.451Z,0
2018-03-29T00:13:53.594Z,0
2018-03-29T00:14:19.726Z,0
2018-03-29T00:14:45.863Z,0
2018-03-29T00:15:12.024Z,0
2018-03-29T00:15:38.156Z,0
2018-03-29T00:16:04.290Z,0
2018-03-29T00:16:30.450Z,0
2018-03-29T00:16:56.587Z,0
2018-03-29T00:17:22.738Z,0
2018-03-29T00:17:48.903Z,0
2018-03-29T00:18:15.035Z,0
2018-03-29T00:18:41.171Z,0
2018-03-29T00:19:07.299Z,0
2018-03-29T00:19:33.439Z,0
2018-03-29T00:19:59.579Z,0
2018-03-29T00:20:25.712Z,0
2018-03-29T00:20:51.852Z,0
2018-03-29T00:21:17.987Z,0
2018-03-29T00:21:44.123Z,0
2018-03-29T00:22:10.254Z,0
2018-03-29T00:22:36.393Z,0
2018-03-29T00:23:02.556Z,0
2018-03-29T00:23:28.700Z,0
2018-03-29T00:23:54.856Z,0
2018-03-29T00:24:20.995Z,0
2018-03-29T00:24:47.131Z,0
2018-03-29T00:25:13.260Z,0
2018-03-29T00:25:39.404Z,0
2018-03-29T00:26:05.553Z,0
2018-03-29T00:26:31.692Z,0
2018-03-29T00:26:57.849Z,0
2018-03-29T00:27:23.981Z,0
2018-03-29T00:27:50.125Z,0
2018-03-29T00:28:16.280Z,0
2018-03-29T00:28:42.413Z,0
2018-03-29T00:29:08.561Z,0
2018-03-29T00:29:34.687Z,0
2018-03-29T00:30:00.827Z,0
2018-03-29T00:30:26.970Z,0
2018-03-29T00:30:53.098Z,0
2018-03-29T00:31:19.233Z,0
2018-03-29T00:31:45.368Z,0
2018-03-29T00:32:11.513Z,0
2018-03-29T00:32:37.693Z,0
2018-03-29T00:33:03.864Z,0
2018-03-29T00:33:29.991Z,0
2018-03-29T00:33:56.134Z,0
2018-03-29T00:34:22.270Z,0
2018-03-29T00:34:48.430Z,0
2018-03-29T00:35:14.564Z,0
2018-03-29T00:35:40.696Z,0
2018-03-29T00:36:06.856Z,0
2018-03-29T00:36:33.010Z,0
2018-03-29T00:36:59.169Z,0
2018-03-29T00:37:25.305Z,0
2018-03-29T00:37:51.440Z,0
2018-03-29T00:38:17.575Z,0
2018-03-29T00:38:43.717Z,0
2018-03-29T00:39:09.876Z,0
2018-03-29T00:39:36.003Z,0
2018-03-29T00:40:02.168Z,0
2018-03-29T00:40:28.319Z,0
2018-03-29T00:40:54.452Z,0
2018-03-29T00:41:20.589Z,0
2018-03-29T00:41:46.735Z,0
2018-03-29T00:42:12.861Z,0
2018-03-29T00:42:38.998Z,0
2018-03-29T00:43:05.133Z,0
2018-03-29T00:43:31.264Z,0
2018-03-29T00:43:57.401Z,0
2018-03-29T00:44:23.539Z,0
2018-03-29T00:44:49.668Z,0
2018-03-29T00:45:15.801Z,0
2018-03-29T00:45:41.940Z,0
2018-03-29T00:46:08.080Z,0
2018-03-29T00:46:34.213Z,0
2018-03-29T00:47:00.345Z,0
2018-03-29T00:47:26.485Z,0
2018-03-29T00:47:52.615Z,0
2018-03-29T00:48:18.756Z,0
2018-03-29T00:48:44.891Z,0
2018-03-29T00:49:11.050Z,0
2018-03-29T00:49:37.185Z,0
2018-03-29T00:50:03.322Z,0
2018-03-29T00:50:29.462Z,0
2018-03-29T00:50:55.617Z,0
2018-03-29T00:51:21.757Z,0
2018-03-29T00:51:47.891Z,0
2018-03-29T00:52:14.031Z,0
2018-03-29T00:52:40.165Z,0
2018-03-29T00:53:06.304Z,0
2018-03-29T00:53:32.461Z,0
2018-03-29T00:53:58.602Z,0
2018-03-29T00:54:24.733Z,0
2018-03-29T00:54:50.870Z,0
2018-03-29T00:55:17.007Z,0
2018-03-29T00:55:43.172Z,0
2018-03-29T00:56:09.308Z,0
2018-03-29T00:56:35.444Z,0
2018-03-29T00:57:01.584Z,0
2018-03-29T00:57:27.719Z,0
2018-03-29T00:57:53.877Z,0
2018-03-29T00:58:20.009Z,0
2018-03-29T00:58:46.150Z,0
2018-03-29T00:59:12.289Z,0
2018-03-29T00:59:38.423Z,0
2018-03-29T01:00:04.554Z,0
2018-03-29T01:00:30.690Z,0
2018-03-29T01:00:56.852Z,0
2018-03-29T01:01:22.992Z,0
2018-03-29T01:01:49.127Z,0
2018-03-29T01:02:15.269Z,0
2018-03-29T01:02:41.406Z,0
2018-03-29T01:03:07.539Z,0
2018-03-29T01:03:33.734Z,0
2018-03-29T01:03:59.812Z,0
2018-03-29T01:04:25.945Z,0
2018-03-29T01:04:52.081Z,0
2018-03-29T01:05:18.228Z,0
2018-03-29T01:05:44.362Z,0
2018-03-29T01:06:10.492Z,0
2018-03-29T01:06:36.630Z,0
2018-03-29T01:07:02.765Z,0
2018-03-29T01:07:28.903Z,0
2018-03-29T01:07:55.039Z,0
2018-03-29T01:08:21.180Z,0
2018-03-29T01:08:47.316Z,0
2018-03-29T01:09:13.457Z,0
2018-03-29T01:09:39.610Z,0
2018-03-29T01:10:05.750Z,0
2018-03-29T01:10:31.917Z,0
2018-03-29T01:10:58.056Z,0
2018-03-29T01:11:24.191Z,0
2018-03-29T01:11:50.358Z,0
2018-03-29T01:12:16.492Z,0
2018-03-29T01:12:42.670Z,0
2018-03-29T01:13:08.812Z,0
2018-03-29T01:13:34.946Z,0
2018-03-29T01:14:01.081Z,0
2018-03-29T01:14:27.240Z,0
2018-03-29T01:14:53.374Z,0
2018-03-29T01:15:19.514Z,0
2018-03-29T01:15:45.648Z,0
2018-03-29T01:16:11.808Z,0
2018-03-29T01:16:37.942Z,0
2018-03-29T01:17:04.082Z,0
2018-03-29T01:17:30.220Z,0
2018-03-29T01:17:56.376Z,0
2018-03-29T01:18:22.513Z,0
2018-03-29T01:18:48.642Z,0
2018-03-29T01:19:14.778Z,0
2018-03-29T01:19:40.911Z,0
2018-03-29T01:20:07.044Z,0
2018-03-29T01:20:33.182Z,0
2018-03-29T01:20:59.311Z,0
2018-03-29T01:21:25.450Z,0
2018-03-29T01:21:51.582Z,0
2018-03-29T01:22:17.720Z,0
2018-03-29T01:22:43.854Z,0
2018-03-29T01:23:10.024Z,0
2018-03-29T01:23:36.172Z,0
2018-03-29T01:24:02.309Z,0
2018-03-29T01:24:28.452Z,0
2018-03-29T01:24:54.612Z,0
2018-03-29T01:25:20.753Z,0
2018-03-29T01:25:46.883Z,0
2018-03-29T01:26:13.034Z,0
2018-03-29T01:26:39.186Z,0
2018-03-29T01:27:05.323Z,0
2018-03-29T01:27:31.458Z,0
2018-03-29T01:27:57.590Z,0
2018-03-29T01:28:23.728Z,0
2018-03-29T01:28:49.861Z,0
2018-03-29T01:29:16.004Z,0
2018-03-29T01:29:42.135Z,0
2018-03-29T01:30:08.275Z,0
2018-03-29T01:30:34.409Z,0
2018-03-29T01:31:00.547Z,0
2018-03-29T01:31:26.689Z,0
2018-03-29T01:31:52.823Z,0
2018-03-29T01:32:18.984Z,0
2018-03-29T01:32:45.118Z,0
2018-03-29T01:33:11.253Z,0
2018-03-29T01:33:37.391Z,0
2018-03-29T01:34:03.539Z,0
2018-03-29T01:34:29.664Z,0
2018-03-29T01:34:55.798Z,0
2018-03-29T01:35:21.933Z,0
2018-03-29T01:35:48.072Z,0
2018-03-29T01:36:14.200Z,0
2018-03-29T01:36:40.340Z,0
2018-03-29T01:37:06.470Z,0
2018-03-29T01:37:32.605Z,0
2018-03-29T01:37:58.741Z,0
2018-03-29T01:38:24.879Z,0
2018-03-29T01:38:51.018Z,0
2018-03-29T01:39:17.159Z,0
2018-03-29T01:39:43.292Z,0
2018-03-29T01:40:09.438Z,0
2018-03-29T01:40:35.576Z,0
2018-03-29T01:41:01.708Z,0
2018-03-29T01:41:27.842Z,0
2018-03-29T01:41:53.979Z,0
2018-03-29T01:42:20.115Z,0
2018-03-29T01:42:46.251Z,0
2018-03-29T01:43:12.390Z,0
2018-03-29T01:43:38.531Z,0
2018-03-29T01:44:04.670Z,0
2018-03-29T01:44:30.803Z,0
2018-03-29T01:44:56.942Z,0
2018-03-29T01:45:23.108Z,0
2018-03-29T01:45:49.244Z,0
2018-03-29T01:46:15.403Z,0
2018-03-29T01:46:41.548Z,0
2018-03-29T01:47:07.690Z,0
2018-03-29T01:47:33.827Z,0
2018-03-29T01:47:59.988Z,0
2018-03-29T01:48:26.146Z,0
2018-03-29T01:48:52.281Z,0
2018-03-29T01:49:18.436Z,0
2018-03-29T01:49:44.580Z,0
2018-03-29T01:50:10.715Z,0
2018-03-29T01:50:36.876Z,0
2018-03-29T01:51:03.014Z,0
2018-03-29T01:51:29.163Z,0
2018-03-29T01:51:55.323Z,0
2018-03-29T01:52:21.452Z,0
2018-03-29T01:52:47.619Z,0
2018-03-29T01:53:13.754Z,0
2018-03-29T01:53:39.897Z,0
2018-03-29T01:54:06.061Z,0
2018-03-29T01:54:32.198Z,0
2018-03-29T01:54:58.331Z,0
2018-03-29T01:55:24.465Z,0
2018-03-29T01:55:50.592Z,0
2018-03-29T01:56:16.761Z,0
2018-03-29T01:56:42.897Z,0
2018-03-29T01:57:09.036Z,0
2018-03-29T01:57:35.171Z,0
2018-03-29T01:58:01.322Z,0
2018-03-29T01:58:27.478Z,0
2018-03-29T01:58:53.611Z,0
2018-03-29T01:59:19.751Z,0
2018-03-29T01:59:45.888Z,0
2018-03-29T02:00:12.024Z,0
2018-03-29T02:00:38.194Z,0
2018-03-29T02:01:04.323Z,0
2018-03-29T02:01:30.460Z,0
2018-03-29T02:01:56.598Z,0
2018-03-29T02:02:22.733Z,0
2018-03-29T02:02:48.864Z,0
2018-03-29T02:03:14.999Z,0
2018-03-29T02:03:41.139Z,0
2018-03-29T02:04:07.297Z,0
2018-03-29T02:04:33.455Z,0
2018-03-29T02:04:59.589Z,0
2018-03-29T02:05:25.746Z,0
2018-03-29T02:05:51.906Z,0
2018-03-29T02:06:18.044Z,0
2018-03-29T02:06:44.183Z,0
2018-03-29T02:07:10.324Z,0
2018-03-29T02:07:36.453Z,0
2018-03-29T02:08:02.584Z,0
2018-03-29T02:08:28.724Z,0
2018-03-29T02:08:54.860Z,0
2018-03-29T02:09:20.992Z,0
2018-03-29T02:09:47.132Z,0
2018-03-29T02:10:13.286Z,0
2018-03-29T02:10:39.422Z,0
2018-03-29T02:11:05.557Z,0
2018-03-29T02:11:31.692Z,0
2018-03-29T02:11:57.834Z,0
2018-03-29T02:12:23.972Z,0
2018-03-29T02:12:50.162Z,0
2018-03-29T02:13:16.238Z,0
2018-03-29T02:13:42.402Z,0
2018-03-29T02:14:08.539Z,0
2018-03-29T02:14:34.668Z,0
2018-03-29T02:15:00.797Z,0
2018-03-29T02:15:26.937Z,0
2018-03-29T02:15:53.072Z,0
2018-03-29T02:16:19.205Z,0
2018-03-29T02:16:45.350Z,0
2018-03-29T02:17:11.480Z,0
2018-03-29T02:17:37.607Z,0
2018-03-29T02:18:03.754Z,0
2018-03-29T02:18:29.892Z,0
2018-03-29T02:18:56.025Z,0
2018-03-29T02:19:22.158Z,0
2018-03-29T02:19:48.292Z,0
2018-03-29T02:20:14.429Z,0
2018-03-29T02:20:40.559Z,0
2018-03-29T02:21:06.724Z,0
2018-03-29T02:21:32.877Z,0
2018-03-29T02:21:59.034Z,0
2018-03-29T02:22:25.173Z,0
2018-03-29T02:22:51.312Z,0
2018-03-29T02:23:17.443Z,0
2018-03-29T02:23:43.583Z,0
2018-03-29T02:24:09.716Z,0
2018-03-29T02:24:35.855Z,0
2018-03-29T02:25:01.997Z,0
2018-03-29T02:25:28.123Z,0
2018-03-29T02:25:54.249Z,0
2018-03-29T02:26:20.386Z,0
2018-03-29T02:26:46.523Z,0
2018-03-29T02:27:12.721Z,0
2018-03-29T02:27:38.801Z,0
2018-03-29T02:28:04.959Z,0
2018-03-29T02:28:31.090Z,0
2018-03-29T02:28:57.228Z,0
2018-03-29T02:29:23.360Z,0
2018-03-29T02:29:49.493Z,0
2018-03-29T02:30:15.635Z,0
2018-03-29T02:30:41.814Z,0
2018-03-29T02:31:07.970Z,0
2018-03-29T02:31:34.128Z,0
2018-03-29T02:32:00.265Z,0
2018-03-29T02:32:26.436Z,0
2018-03-29T02:32:52.570Z,0
2018-03-29T02:33:18.722Z,0
2018-03-29T02:33:44.856Z,0
2018-03-29T02:34:11.020Z,0
2018-03-29T02:34:37.179Z,0
2018-03-29T02:35:03.316Z,0
2018-03-29T02:35:29.453Z,0
2018-03-29T02:35:55.587Z,0
2018-03-29T02:36:21.724Z,0
2018-03-29T02:36:47.863Z,0
2018-03-29T02:37:14.001Z,0
2018-03-29T02:37:40.135Z,0
2018-03-29T02:38:06.280Z,0
2018-03-29T02:38:32.414Z,0
2018-03-29T02:38:58.552Z,0
2018-03-29T02:39:24.683Z,0
2018-03-29T02:39:50.872Z,0
2018-03-29T02:40:17.010Z,0
2018-03-29T02:40:43.146Z,0
2018-03-29T02:41:09.287Z,0
2018-03-29T02:41:35.420Z,0
2018-03-29T02:42:01.583Z,0
2018-03-29T02:42:27.737Z,0
2018-03-29T02:42:53.873Z,0
2018-03-29T02:43:20.014Z,0
2018-03-29T02:43:46.150Z,0
2018-03-29T02:44:12.303Z,0
2018-03-29T02:44:38.440Z,0
2018-03-29T02:45:04.571Z,0
2018-03-29T02:45:30.712Z,0
2018-03-29T02:45:56.844Z,0
2018-03-29T02:46:22.982Z,0
2018-03-29T02:46:49.139Z,0
2018-03-29T02:47:15.274Z,0
2018-03-29T02:47:41.404Z,0
2018-03-29T02:48:07.594Z,0
2018-03-29T02:48:33.731Z,0
2018-03-29T02:48:59.882Z,0
2018-03-29T02:49:26.013Z,0
2018-03-29T02:49:52.163Z,0
2018-03-29T02:50:18.328Z,0
2018-03-29T02:50:44.468Z,0
2018-03-29T02:51:10.610Z,0
2018-03-29T02:51:36.738Z,0
2018-03-29T02:52:02.875Z,0
2018-03-29T02:52:29.017Z,0
2018-03-29T02:52:55.152Z,0
2018-03-29T02:53:21.286Z,0
2018-03-29T02:53:47.426Z,0
2018-03-29T02:54:13.556Z,0
2018-03-29T02:54:39.696Z,0
2018-03-29T02:55:05.837Z,0
2018-03-29T02:55:31.990Z,0
2018-03-29T02:55:58.123Z,0
2018-03-29T02:56:24.255Z,0
2018-03-29T02:56:50.432Z,0
2018-03-29T02:57:16.580Z,0
2018-03-29T02:57:42.732Z,0
2018-03-29T02:58:08.867Z,0
2018-03-29T02:58:35.001Z,0
2018-03-29T02:59:01.142Z,0
2018-03-29T02:59:27.278Z,0
2018-03-29T02:59:53.417Z,0
2018-03-29T03:00:19.543Z,0
2018-03-29T03:00:45.706Z,0
2018-03-29T03:01:11.863Z,0
2018-03-29T03:01:38.003Z,0
2018-03-29T03:02:04.144Z,0
2018-03-29T03:02:30.296Z,0
2018-03-29T03:02:56.435Z,0
2018-03-29T03:03:22.578Z,0
2018-03-29T03:03:48.738Z,0
2018-03-29T03:04:14.866Z,0
2018-03-29T03:04:41.026Z,0
2018-03-29T03:05:07.160Z,0
2018-03-29T03:05:33.300Z,0
2018-03-29T03:05:59.431Z,0
2018-03-29T03:06:25.572Z,0
2018-03-29T03:06:51.701Z,0
2018-03-29T03:07:17.863Z,0
2018-03-29T03:07:44.027Z,0
2018-03-29T03:08:10.163Z,0
2018-03-29T03:08:36.298Z,0
2018-03-29T03:09:02.438Z,0
2018-03-29T03:09:28.571Z,0
2018-03-29T03:09:54.708Z,0
2018-03-29T03:10:20.841Z,0
2018-03-29T03:10:46.976Z,0
2018-03-29T03:11:13.112Z,0
2018-03-29T03:11:39.242Z,0
2018-03-29T03:12:05.407Z,0
2018-03-29T03:12:31.538Z,0
2018-03-29T03:12:57.679Z,0
2018-03-29T03:13:23.816Z,0
2018-03-29T03:13:49.949Z,0
2018-03-29T03:14:16.083Z,0
2018-03-29T03:14:42.219Z,0
2018-03-29T03:15:08.377Z,0
2018-03-29T03:15:34.517Z,0
2018-03-29T03:16:00.653Z,0
2018-03-29T03:16:26.842Z,0
2018-03-29T03:16:52.984Z,0
2018-03-29T03:17:19.119Z,0
2018-03-29T03:17:45.264Z,0
2018-03-29T03:18:11.395Z,0
2018-03-29T03:18:37.527Z,0
2018-03-29T03:19:03.664Z,0
2018-03-29T03:19:29.825Z,0
2018-03-29T03:19:55.994Z,0
2018-03-29T03:20:22.127Z,0
2018-03-29T03:20:48.290Z,0
2018-03-29T03:21:14.430Z,0
2018-03-29T03:21:40.563Z,0
2018-03-29T03:22:06.758Z,0
2018-03-29T03:22:32.844Z,0
2018-03-29T03:22:58.986Z,0
2018-03-29T03:23:25.121Z,0
2018-03-29T03:23:51.251Z,0
2018-03-29T03:24:17.383Z,0
2018-03-29T03:24:43.536Z,0
2018-03-29T03:25:09.688Z,0
2018-03-29T03:25:35.817Z,0
2018-03-29T03:26:01.952Z,0
2018-03-29T03:26:28.092Z,0
2018-03-29T03:26:54.226Z,0
2018-03-29T03:27:20.361Z,0
2018-03-29T03:27:46.500Z,0
2018-03-29T03:28:12.639Z,0
2018-03-29T03:28:38.774Z,0
2018-03-29T03:29:04.914Z,0
2018-03-29T03:29:31.055Z,0
2018-03-29T03:29:57.191Z,0
2018-03-29T03:30:23.327Z,0
2018-03-29T03:30:49.466Z,0
2018-03-29T03:31:15.605Z,0
2018-03-29T03:31:41.732Z,0
2018-03-29T03:32:07.873Z,0
2018-03-29T03:32:34.007Z,0
2018-03-29T03:33:00.145Z,0
2018-03-29T03:33:26.280Z,0
2018-03-29T03:33:52.415Z,0
2018-03-29T03:34:18.549Z,0
2018-03-29T03:34:44.677Z,0
2018-03-29T03:35:10.810Z,0
2018-03-29T03:35:36.945Z,0
2018-03-29T03:36:03.086Z,0
2018-03-29T03:36:29.217Z,0
2018-03-29T03:36:55.380Z,0
2018-03-29T03:37:21.513Z,0
2018-03-29T03:37:47.646Z,0
2018-03-29T03:38:13.788Z,0
2018-03-29T03:38:39.949Z,0
2018-03-29T03:39:06.079Z,0
2018-03-29T03:39:32.219Z,0
2018-03-29T03:39:58.376Z,0
2018-03-29T03:40:24.510Z,0
2018-03-29T03:40:50.648Z,0
2018-03-29T03:41:16.805Z,0
2018-03-29T03:41:42.948Z,0
2018-03-29T03:42:09.077Z,0
2018-03-29T03:42:35.217Z,0
2018-03-29T03:43:01.353Z,0
2018-03-29T03:43:27.490Z,0
2018-03-29T03:43:53.624Z,0
2018-03-29T03:44:19.757Z,0
2018-03-29T03:44:45.892Z,0
2018-03-29T03:45:12.066Z,0
2018-03-29T03:45:38.222Z,0
2018-03-29T03:46:04.360Z,0
2018-03-29T03:46:30.497Z,0
2018-03-29T03:46:56.653Z,0
2018-03-29T03:47:22.814Z,0
2018-03-29T03:47:48.953Z,0
2018-03-29T03:48:15.091Z,0
2018-03-29T03:48:41.222Z,0
2018-03-29T03:49:07.356Z,0
2018-03-29T03:49:33.489Z,0
2018-03-29T03:49:59.632Z,0
2018-03-29T03:50:25.761Z,0
2018-03-29T03:50:51.899Z,0
2018-03-29T03:51:18.036Z,0
2018-03-29T03:51:44.169Z,0
2018-03-29T03:52:10.336Z,0
2018-03-29T03:52:36.477Z,0
2018-03-29T03:53:02.611Z,0
2018-03-29T03:53:28.751Z,0
2018-03-29T03:53:54.886Z,0
2018-03-29T03:54:21.025Z,0
2018-03-29T03:54:47.165Z,0
2018-03-29T03:55:13.300Z,0
2018-03-29T03:55:39.431Z,0
2018-03-29T03:56:05.562Z,0
2018-03-29T03:56:31.703Z,0
2018-03-29T03:56:57.835Z,0
2018-03-29T03:57:23.972Z,0
2018-03-29T03:57:50.130Z,0
2018-03-29T03:58:16.264Z,0
2018-03-29T03:58:42.428Z,0
2018-03-29T03:59:08.565Z,0
2018-03-29T03:59:34.698Z,0
2018-03-29T04:00:00.843Z,0
2018-03-29T04:00:27.009Z,0
2018-03-29T04:00:53.168Z,0
2018-03-29T04:01:19.311Z,0
2018-03-29T04:01:45.439Z,0
2018-03-29T04:02:11.578Z,0
2018-03-29T04:02:37.713Z,0
2018-03-29T04:03:03.852Z,0
2018-03-29T04:03:29.991Z,0
2018-03-29T04:03:56.125Z,0
2018-03-29T04:04:22.261Z,0
2018-03-29T04:04:48.399Z,0
2018-03-29T04:05:14.531Z,0
2018-03-29T04:05:40.664Z,0
2018-03-29T04:06:06.833Z,0
2018-03-29T04:06:32.968Z,0
2018-03-29T04:06:59.105Z,0
2018-03-29T04:07:25.264Z,0
2018-03-29T04:07:51.409Z,0
2018-03-29T04:08:17.563Z,0
2018-03-29T04:08:43.709Z,0
2018-03-29T04:09:09.843Z,0
2018-03-29T04:09:35.976Z,0
2018-03-29T04:10:02.114Z,0
2018-03-29T04:10:28.248Z,0
2018-03-29T04:10:54.409Z,0
2018-03-29T04:11:20.542Z,0
2018-03-29T04:11:46.683Z,0
2018-03-29T04:12:12.820Z,0
2018-03-29T04:12:38.955Z,0
2018-03-29T04:13:05.085Z,0
2018-03-29T04:13:31.227Z,0
2018-03-29T04:13:57.363Z,0
2018-03-29T04:14:23.499Z,0
2018-03-29T04:14:49.639Z,0
2018-03-29T04:15:15.772Z,0
2018-03-29T04:15:41.927Z,0
2018-03-29T04:16:08.069Z,0
2018-03-29T04:16:34.198Z,0
2018-03-29T04:17:00.325Z,0
2018-03-29T04:17:26.466Z,0
2018-03-29T04:17:52.601Z,0
2018-03-29T04:18:18.736Z,0
2018-03-29T04:18:44.877Z,0
2018-03-29T04:19:11.034Z,0
2018-03-29T04:19:37.171Z,0
2018-03-29T04:20:03.300Z,0
2018-03-29T04:20:29.438Z,0
2018-03-29T04:20:55.573Z,0
2018-03-29T04:21:21.708Z,0
2018-03-29T04:21:47.866Z,0
2018-03-29T04:22:14.026Z,0
2018-03-29T04:22:40.162Z,0
2018-03-29T04:23:06.298Z,0
2018-03-29T04:23:32.433Z,0
2018-03-29T04:23:58.576Z,0
2018-03-29T04:24:24.704Z,0
2018-03-29T04:24:50.846Z,0
2018-03-29T04:25:16.981Z,0
2018-03-29T04:25:43.116Z,0
2018-03-29T04:26:09.273Z,0
2018-03-29T04:26:35.407Z,0
2018-03-29T04:27:01.545Z,0
2018-03-29T04:27:27.679Z,0
2018-03-29T04:27:53.816Z,0
2018-03-29T04:28:19.976Z,0
2018-03-29T04:28:46.118Z,0
2018-03-29T04:29:12.252Z,0
2018-03-29T04:29:38.388Z,0
2018-03-29T04:30:04.538Z,0
2018-03-29T04:30:30.696Z,0
2018-03-29T04:30:56.827Z,0
2018-03-29T04:31:22.990Z,0
2018-03-29T04:31:49.120Z,0
2018-03-29T04:32:15.253Z,0
2018-03-29T04:32:41.407Z,0
2018-03-29T04:33:07.542Z,0
2018-03-29T04:33:33.700Z,0
2018-03-29T04:33:59.835Z,0
2018-03-29T04:34:25.970Z,0
2018-03-29T04:34:52.106Z,0
2018-03-29T04:35:18.325Z,0
2018-03-29T04:35:44.406Z,0
2018-03-29T04:36:10.555Z,0
2018-03-29T04:36:36.693Z,0
2018-03-29T04:37:02.825Z,0
2018-03-29T04:37:28.964Z,0
2018-03-29T04:37:55.103Z,0
2018-03-29T04:38:21.245Z,0
2018-03-29T04:38:47.372Z,0
2018-03-29T04:39:13.508Z,0
2018-03-29T04:39:39.649Z,0
2018-03-29T04:40:05.785Z,0
2018-03-29T04:40:31.922Z,4
2018-03-29T04:40:58.062Z,4
2018-03-29T04:41:24.224Z,4
2018-03-29T04:41:50.361Z,0
2018-03-29T04:42:16.502Z,0
2018-03-29T04:42:42.658Z,4
2018-03-29T04:43:08.821Z,4
2018-03-29T04:43:34.959Z,4
2018-03-29T04:44:01.098Z,0
2018-03-29T04:44:27.246Z,4
2018-03-29T04:44:53.409Z,4
2018-03-29T04:45:19.538Z,8
2018-03-29T04:45:45.668Z,4
2018-03-29T04:46:11.830Z,4
2018-03-29T04:46:37.967Z,8
2018-03-29T04:47:04.120Z,4
2018-03-29T04:47:30.239Z,8
2018-03-29T04:47:56.375Z,8
2018-03-29T04:48:22.503Z,8
2018-03-29T04:48:48.644Z,8
2018-03-29T04:49:14.790Z,8
2018-03-29T04:49:40.943Z,12
2018-03-29T04:50:07.078Z,12
2018-03-29T04:50:33.213Z,12
2018-03-29T04:50:59.347Z,12
2018-03-29T04:51:25.485Z,12
2018-03-29T04:51:51.614Z,16
2018-03-29T04:52:17.754Z,16
2018-03-29T04:52:43.884Z,20
2018-03-29T04:53:10.024Z,16
2018-03-29T04:53:36.163Z,16
2018-03-29T04:54:02.297Z,20
2018-03-29T04:54:28.429Z,20
2018-03-29T04:54:54.568Z,24
2018-03-29T04:55:20.703Z,24
2018-03-29T04:55:46.846Z,24
2018-03-29T04:56:13.000Z,24
2018-03-29T04:56:39.136Z,24
2018-03-29T04:57:05.283Z,28
2018-03-29T04:57:31.419Z,28
2018-03-29T04:57:57.557Z,28
2018-03-29T04:58:23.690Z,32
2018-03-29T04:58:49.825Z,32
2018-03-29T04:59:15.963Z,28
2018-03-29T04:59:42.099Z,28
2018-03-29T05:00:08.266Z,32
2018-03-29T05:00:34.402Z,32
2018-03-29T05:01:00.542Z,40
2018-03-29T05:01:26.680Z,48
2018-03-29T05:01:52.818Z,60
2018-03-29T05:02:18.953Z,60
2018-03-29T05:02:45.091Z,64
2018-03-29T05:03:11.226Z,68
2018-03-29T05:03:37.361Z,72
2018-03-29T05:04:03.492Z,84
2018-03-29T05:04:29.626Z,88
2018-03-29T05:04:55.759Z,96
2018-03-29T05:05:21.897Z,104
2018-03-29T05:05:48.058Z,104
2018-03-29T05:06:14.198Z,104
2018-03-29T05:06:40.329Z,104
2018-03-29T05:07:06.494Z,96
2018-03-29T05:07:32.652Z,88
2018-03-29T05:07:58.764Z,88
2018-03-29T05:08:24.926Z,100
2018-03-29T05:08:51.069Z,108
2018-03-29T05:09:17.206Z,116
2018-03-29T05:09:43.340Z,116
2018-03-29T05:10:09.468Z,120
2018-03-29T05:10:35.612Z,116
2018-03-29T05:11:01.773Z,112
2018-03-29T05:11:27.914Z,100
2018-03-29T05:11:54.075Z,96
2018-03-29T05:12:20.208Z,108
2018-03-29T05:12:46.366Z,120
2018-03-29T05:13:12.530Z,136
2018-03-29T05:13:38.666Z,152
2018-03-29T05:14:04.804Z,164
2018-03-29T05:14:30.942Z,168
2018-03-29T05:14:57.073Z,168
2018-03-29T05:15:23.212Z,164
2018-03-29T05:15:49.349Z,156
2018-03-29T05:16:15.487Z,168
2018-03-29T05:16:41.630Z,188
2018-03-29T05:17:07.766Z,192
2018-03-29T05:17:33.900Z,196
2018-03-29T05:18:00.042Z,200
2018-03-29T05:18:26.177Z,188
2018-03-29T05:18:52.320Z,192
2018-03-29T05:19:18.452Z,212
2018-03-29T05:19:44.591Z,224
2018-03-29T05:20:10.725Z,220
2018-03-29T05:20:36.856Z,208
2018-03-29T05:21:03.023Z,180
2018-03-29T05:21:29.180Z,140
2018-03-29T05:21:55.296Z,136
2018-03-29T05:22:21.445Z,136
2018-03-29T05:22:47.579Z,148
2018-03-29T05:23:13.720Z,152
2018-03-29T05:23:39.889Z,152
2018-03-29T05:24:06.008Z,160
2018-03-29T05:24:32.146Z,164
2018-03-29T05:24:58.306Z,164
2018-03-29T05:25:24.453Z,172
2018-03-29T05:25:50.583Z,196
2018-03-29T05:26:16.722Z,232
2018-03-29T05:26:42.851Z,236
2018-03-29T05:27:09.037Z,220
2018-03-29T05:27:35.195Z,212
2018-03-29T05:28:01.335Z,216
2018-03-29T05:28:27.476Z,224
2018-03-29T05:28:53.609Z,224
2018-03-29T05:29:19.744Z,208
2018-03-29T05:29:45.882Z,208
2018-03-29T05:30:12.028Z,228
2018-03-29T05:30:38.160Z,264
2018-03-29T05:31:04.297Z,304
2018-03-29T05:31:30.431Z,328
2018-03-29T05:31:56.592Z,356
2018-03-29T05:32:22.728Z,368
2018-03-29T05:32:48.863Z,360
2018-03-29T05:33:14.999Z,360
2018-03-29T05:33:41.138Z,376
2018-03-29T05:34:07.279Z,380
2018-03-29T05:34:33.415Z,384
2018-03-29T05:34:59.575Z,400
2018-03-29T05:35:25.727Z,408
2018-03-29T05:35:51.857Z,412
2018-03-29T05:36:18.016Z,396
2018-03-29T05:36:44.155Z,412
2018-03-29T05:37:10.290Z,456
2018-03-29T05:37:36.425Z,428
2018-03-29T05:38:02.558Z,452
2018-03-29T05:38:28.696Z,520
2018-03-29T05:38:54.838Z,564
2018-03-29T05:39:20.976Z,548
2018-03-29T05:39:47.108Z,556
2018-03-29T05:40:13.270Z,536
2018-03-29T05:40:39.402Z,512
2018-03-29T05:41:05.540Z,512
2018-03-29T05:41:31.669Z,496
2018-03-29T05:41:57.831Z,472
2018-03-29T05:42:23.964Z,480
2018-03-29T05:42:50.099Z,508
2018-03-29T05:43:16.241Z,512
2018-03-29T05:43:42.371Z,572
2018-03-29T05:44:08.511Z,672
2018-03-29T05:44:34.649Z,716
2018-03-29T05:45:00.787Z,692
2018-03-29T05:45:26.942Z,688
2018-03-29T05:45:53.095Z,680
2018-03-29T05:46:19.235Z,716
2018-03-29T05:46:45.395Z,740
2018-03-29T05:47:11.564Z,796
2018-03-29T05:47:37.699Z,872
2018-03-29T05:48:03.839Z,980
2018-03-29T05:48:29.975Z,1044
2018-03-29T05:48:56.114Z,1072
2018-03-29T05:49:22.246Z,1116
2018-03-29T05:49:48.407Z,1116
2018-03-29T05:50:14.539Z,1048
2018-03-29T05:50:40.676Z,1036
2018-03-29T05:51:06.810Z,1096
2018-03-29T05:51:32.947Z,1156
2018-03-29T05:51:59.081Z,1192
2018-03-29T05:52:25.223Z,1100
2018-03-29T05:52:51.361Z,1032
2018-03-29T05:53:17.502Z,1056
2018-03-29T05:53:43.662Z,1148
2018-03-29T05:54:09.799Z,1272
2018-03-29T05:54:35.932Z,1300
2018-03-29T05:55:02.120Z,1272
2018-03-29T05:55:28.248Z,1288
2018-03-29T05:55:54.384Z,1240
2018-03-29T05:56:20.523Z,1200
2018-03-29T05:56:46.656Z,1200
2018-03-29T05:57:12.794Z,1164
2018-03-29T05:57:38.975Z,1080
2018-03-29T05:58:05.062Z,1048
2018-03-29T05:58:31.200Z,1036
2018-03-29T05:58:57.343Z,1108
2018-03-29T05:59:23.480Z,1196
2018-03-29T05:59:49.620Z,1252
2018-03-29T06:00:15.755Z,1228
2018-03-29T06:00:41.897Z,1244
2018-03-29T06:01:08.028Z,1260
2018-03-29T06:01:34.165Z,1204
2018-03-29T06:02:00.306Z,1232
2018-03-29T06:02:26.438Z,1252
2018-03-29T06:02:52.574Z,1244
2018-03-29T06:03:18.734Z,1272
2018-03-29T06:03:44.876Z,1308
2018-03-29T06:04:11.011Z,1272
2018-03-29T06:04:37.144Z,1248
2018-03-29T06:05:03.285Z,1352
2018-03-29T06:05:29.419Z,1424
2018-03-29T06:05:55.551Z,1524
2018-03-29T06:06:21.694Z,1612
2018-03-29T06:06:47.826Z,1684
2018-03-29T06:07:13.962Z,1760
2018-03-29T06:07:40.105Z,1756
2018-03-29T06:08:06.237Z,1728
2018-03-29T06:08:32.377Z,1764
2018-03-29T06:08:58.510Z,1756
2018-03-29T06:09:24.657Z,1628
2018-03-29T06:09:50.794Z,1512
2018-03-29T06:10:16.926Z,1432
2018-03-29T06:10:43.064Z,1344
2018-03-29T06:11:09.205Z,1336
2018-03-29T06:11:35.360Z,1496
2018-03-29T06:12:01.537Z,1676
2018-03-29T06:12:27.693Z,1884
2018-03-29T06:12:53.834Z,2032
2018-03-29T06:13:19.970Z,2200
2018-03-29T06:13:46.104Z,2172
2018-03-29T06:14:12.269Z,2036
2018-03-29T06:14:38.400Z,2040
2018-03-29T06:15:04.534Z,2160
2018-03-29T06:15:30.677Z,2444
2018-03-29T06:15:56.813Z,2648
2018-03-29T06:16:22.944Z,2660
2018-03-29T06:16:49.092Z,2588
2018-03-29T06:17:15.223Z,2548
2018-03-29T06:17:41.361Z,2588
2018-03-29T06:18:07.499Z,2692
2018-03-29T06:18:33.657Z,2736
2018-03-29T06:18:59.799Z,2720
2018-03-29T06:19:25.933Z,2692